Date,TemperatureHighF,TemperatureAvgF,TemperatureLowF,DewpointHighF,DewpointAvgF,DewpointLowF,HumidityHigh,HumidityAvg,HumidityLow,PressureMaxIn,PressureMinIn,WindSpeedMaxMPH,WindSpeedAvgMPH,GustSpeedMaxMPH,PrecipitationSumIn
2014-3-1,39.4,29.3,20.5,27.8,21.3,16.4,92,73,56,30.24,30.03,16,8,16,0.00
2014-3-2,21.2,17.5,10.9,18.6,13.0,3.9,92,83,68,30.32,30.20,17,9,17,0.00
2014-3-3,16.8,8.2,1.7,4.2,-1.7,-5.2,76,64,47,30.48,30.31,18,8,18,0.00
2014-3-4,24.8,14.4,4.2,13.1,6.3,-2.3,79,70,58,30.42,30.20,15,4,15,0.01
2014-3-5,22.9,17.6,7.8,18.1,11.7,3.5,88,77,61,30.41,30.23,22,10,22,0.00
2014-3-6,29.9,21.3,15.2,20.3,14.5,9.7,85,75,64,30.41,30.12,20,10,20,0.00
2014-3-7,49.9,31.4,10.8,39.0,25.2,8.4,93,79,62,30.12,29.91,12,3,12,0.01
2014-3-8,39.8,33.7,25.1,35.1,30.4,20.6,94,88,80,30.20,29.92,17,6,17,0.03
2014-3-9,40.1,30.2,19.2,32.1,25.4,17.5,94,83,68,30.27,29.91,20,8,20,0.00
2014-3-10,54.9,44.2,35.7,45.6,37.8,31.0,86,78,67,29.92,29.65,25,11,25,0.00
2014-3-11,58.1,44.5,34.9,50.0,40.0,33.0,96,85,70,29.67,29.57,17,4,17,0.00
2014-3-12,42.0,29.6,16.4,36.3,27.1,13.0,97,90,75,30.04,29.38,23,14,23,0.81
2014-3-13,33.8,22.0,9.1,26.6,16.6,6.5,91,80,69,30.20,29.98,18,7,18,0.00
2014-3-14,56.5,43.6,33.8,42.2,33.6,24.8,76,68,52,29.98,29.63,36,17,36,0.01
2014-3-15,46.4,39.4,31.9,34.3,31.3,24.8,85,73,52,30.16,29.83,20,10,20,0.00
2014-3-16,31.8,25.5,19.6,24.8,16.0,6.9,78,67,55,30.25,30.11,31,18,31,0.00
2014-3-17,37.6,25.3,14.1,28.0,18.3,9.0,86,75,63,30.09,29.84,23,10,23,0.00
2014-3-18,53.4,38.4,25.7,41.3,32.2,23.8,93,80,59,29.93,29.71,17,7,17,0.00
2014-3-19,50.3,43.0,35.7,47.1,40.0,31.2,93,89,83,29.94,29.61,38,16,38,0.04
2014-3-20,47.3,37.8,31.0,36.0,30.7,25.6,90,76,60,30.05,29.94,26,10,26,0.00
2014-3-21,63.2,46.4,33.1,44.6,36.4,30.2,90,71,44,30.03,29.66,23,10,23,0.02
2014-3-22,54.5,40.6,32.8,41.6,32.3,27.7,83,72,55,30.20,29.67,25,10,25,0.00
2014-3-23,32.7,28.4,22.2,27.8,18.7,15.2,82,67,51,30.35,30.20,17,8,17,0.00
2014-3-24,34.6,26.1,16.2,19.7,15.9,12.4,89,66,47,30.35,30.10,18,5,18,0.00
2014-3-25,30.7,26.8,21.8,26.0,20.1,13.3,92,76,57,30.20,29.95,26,8,26,0.01
2014-3-26,38.0,27.0,16.2,21.7,16.5,11.9,88,66,42,30.35,30.14,15,6,15,0.00
2014-3-27,48.2,39.0,31.7,41.3,30.9,21.2,85,73,59,30.14,29.63,28,16,28,0.11
2014-3-28,50.5,42.9,32.8,47.4,38.6,29.6,94,85,72,30.13,29.55,37,16,37,0.02
2014-3-29,39.3,35.5,32.4,35.6,32.5,29.1,96,89,78,30.17,30.02,18,9,18,0.19
2014-3-30,53.2,38.4,26.2,36.5,29.9,24.5,94,74,46,30.24,30.09,12,4,12,0.00
2014-3-31,67.1,50.7,35.5,40.3,35.4,30.3,86,59,33,30.11,29.82,25,10,25,0.00